Time;durP1;ratioP1;P1;durP2;ratioP2;P2;SDS_P1;SDS_P2;PMS_P1;PMS_P2;Temp;Humidity;BMP_temperature;BMP_pressure;BME280_temperature;BME280_humidity;BME280_pressure;Samples;Min_cycle;Max_cycle;Signal;HPM_P1;HPM_P2
2021/12/11 00:00:29;;;;;;;2.90;1.90;;;1.80;99.90;;;;;;5009397;28;20532;-60
2021/12/11 00:03:13;;;;;;;1.43;1.33;;;1.70;99.90;;;;;;5001758;28;20498;-57
2021/12/11 00:05:39;;;;;;;1.80;1.60;;;1.70;99.90;;;;;;5005639;28;20438;-59
2021/12/11 00:08:08;;;;;;;1.50;1.40;;;1.70;99.90;;;;;;5002693;28;20513;-61
2021/12/11 00:10:45;;;;;;;3.33;1.60;;;1.70;99.90;;;;;;5002222;28;20856;-59
2021/12/11 00:13:21;;;;;;;1.60;1.50;;;1.70;99.90;;;;;;5002906;28;20945;-59
2021/12/11 00:15:48;;;;;;;1.70;1.60;;;1.70;99.90;;;;;;5007009;28;20424;-59
2021/12/11 00:18:27;;;;;;;1.63;1.53;;;1.70;99.90;;;;;;5004029;28;20473;-59
2021/12/11 00:21:03;;;;;;;3.50;1.90;;;1.70;99.90;;;;;;5000862;28;20461;-59
2021/12/11 00:23:42;;;;;;;1.57;1.47;;;1.70;99.90;;;;;;5004289;28;20432;-59
2021/12/11 00:26:10;;;;;;;1.97;1.80;;;1.70;99.90;;;;;;5000362;28;20445;-59
2021/12/11 00:28:46;;;;;;;2.30;1.90;;;1.60;99.90;;;;;;4993116;28;20438;-59
2021/12/11 00:31:14;;;;;;;1.63;1.53;;;1.70;99.90;;;;;;5001552;28;20981;-57
2021/12/11 00:33:40;;;;;;;1.80;1.63;;;1.60;99.90;;;;;;5020011;28;20860;-57
2021/12/11 00:36:11;;;;;;;2.60;1.70;;;1.60;99.90;;;;;;5008889;28;20521;-59
2021/12/11 00:38:38;;;;;;;2.27;1.80;;;1.60;99.90;;;;;;5002892;28;21000;-59
2021/12/11 00:41:07;;;;;;;1.87;1.77;;;1.60;99.90;;;;;;5000679;28;20477;-59
2021/12/11 00:43:35;;;;;;;2.80;1.80;;;1.60;99.90;;;;;;5002492;28;20488;-59
2021/12/11 00:46:06;;;;;;;3.17;2.40;;;1.60;99.90;;;;;;5002430;28;20544;-58
2021/12/11 00:48:32;;;;;;;2.00;1.73;;;1.60;99.90;;;;;;5004274;28;20955;-59
2021/12/11 00:51:13;;;;;;;2.00;1.90;;;1.60;99.90;;;;;;5001694;28;20463;-59
2021/12/11 00:53:44;;;;;;;3.37;2.17;;;1.50;99.90;;;;;;5011589;28;20712;-58
2021/12/11 00:56:16;;;;;;;1.80;1.70;;;1.50;99.90;;;;;;5008330;28;20433;-58
2021/12/11 00:58:44;;;;;;;2.03;1.60;;;1.50;99.90;;;;;;5009484;28;20478;-60
2021/12/11 01:01:18;;;;;;;2.87;1.70;;;1.50;99.90;;;;;;5006491;28;20492;-59
2021/12/11 01:03:59;;;;;;;1.90;1.80;;;1.50;99.90;;;;;;5008754;28;20912;-58
2021/12/11 01:06:59;;;;;;;2.20;1.80;;;1.50;99.90;;;;;;5006545;28;20421;-59
2021/12/11 01:09:27;;;;;;;2.07;1.87;;;1.50;99.90;;;;;;5008447;28;20458;-57
2021/12/11 01:12:11;;;;;;;2.63;2.00;;;1.50;99.90;;;;;;4997093;28;20445;-57
2021/12/11 01:14:52;;;;;;;2.10;1.73;;;1.50;99.90;;;;;;5004267;28;20942;-59
2021/12/11 01:17:30;;;;;;;4.73;2.30;;;1.50;99.90;;;;;;5002573;28;20580;-59
2021/12/11 01:20:00;;;;;;;3.07;2.20;;;1.50;99.90;;;;;;5004325;28;21113;-59
2021/12/11 01:22:34;;;;;;;2.67;1.60;;;1.50;99.90;;;;;;5007859;28;20470;-57
2021/12/11 01:25:30;;;;;;;2.83;1.70;;;1.50;99.90;;;;;;5005658;28;20437;-58
2021/12/11 01:28:00;;;;;;;2.30;2.00;;;1.50;99.90;;;;;;5004176;28;20431;-58
2021/12/11 01:30:33;;;;;;;2.13;1.93;;;1.50;99.90;;;;;;5003828;28;20455;-59
2021/12/11 01:32:59;;;;;;;2.07;1.87;;;1.50;99.90;;;;;;5004856;28;20439;-59
2021/12/11 01:35:25;;;;;;;3.73;1.90;;;1.50;99.90;;;;;;5007349;28;20419;-60
2021/12/11 01:38:09;;;;;;;4.10;1.83;;;1.50;99.90;;;;;;5005032;28;20448;-61
2021/12/11 01:40:37;;;;;;;5.37;3.30;;;1.50;99.90;;;;;;5005280;28;20465;-56
2021/12/11 01:43:05;;;;;;;6.27;1.80;;;1.50;99.90;;;;;;5007273;28;20433;-58
2021/12/11 01:45:32;;;;;;;1.87;1.67;;;1.50;99.90;;;;;;5005149;28;20861;-57
2021/12/11 01:47:58;;;;;;;5.50;2.00;;;1.40;99.90;;;;;;5004504;28;20945;-59
2021/12/11 01:50:40;;;;;;;3.50;1.70;;;1.40;99.90;;;;;;5008209;28;20519;-58
2021/12/11 01:53:08;;;;;;;2.00;1.17;;;1.40;99.90;;;;;;5004072;28;20362;-58
2021/12/11 01:55:48;;;;;;;1.80;1.70;;;1.40;99.90;;;;;;5006671;28;20934;-56
2021/12/11 01:58:22;;;;;;;2.37;1.70;;;1.40;99.90;;;;;;5006574;28;20445;-59
2021/12/11 02:00:54;;;;;;;2.50;1.93;;;1.40;99.90;;;;;;5004896;28;20534;-57
2021/12/11 02:03:25;;;;;;;2.93;1.80;;;1.40;99.90;;;;;;5004855;28;20618;-59
2021/12/11 02:05:51;;;;;;;1.60;1.50;;;1.40;99.90;;;;;;5005190;28;20514;-59
2021/12/11 02:08:20;;;;;;;2.07;1.90;;;1.30;99.90;;;;;;5006672;28;20548;-59
2021/12/11 02:10:53;;;;;;;1.67;1.40;;;1.30;99.90;;;;;;5004665;28;20839;-59
2021/12/11 02:13:34;;;;;;;2.53;1.67;;;1.30;99.90;;;;;;5011477;28;20441;-58
2021/12/11 02:16:00;;;;;;;2.07;1.87;;;1.30;99.90;;;;;;5013486;28;20429;-60
2021/12/11 02:18:35;;;;;;;2.20;1.83;;;1.30;99.90;;;;;;5012805;28;20457;-58
2021/12/11 02:21:34;;;;;;;3.00;1.80;;;1.30;99.90;;;;;;5011158;28;20520;-59
2021/12/11 02:24:04;;;;;;;1.60;1.50;;;1.30;99.90;;;;;;5011112;28;20503;-58
2021/12/11 02:26:36;;;;;;;1.57;1.40;;;1.30;99.90;;;;;;5012139;28;20436;-58
2021/12/11 02:29:04;;;;;;;1.90;1.80;;;1.30;99.90;;;;;;5011563;28;20438;-58
2021/12/11 02:31:42;;;;;;;4.80;1.87;;;1.30;99.90;;;;;;5012701;28;20426;-58
2021/12/11 02:34:42;;;;;;;1.87;1.77;;;1.30;99.90;;;;;;5012991;28;20451;-58
2021/12/11 02:37:28;;;;;;;1.53;1.43;;;1.30;99.90;;;;;;5010497;28;20508;-58
2021/12/11 02:39:59;;;;;;;1.43;1.27;;;1.30;99.90;;;;;;5011283;28;20794;-59
2021/12/11 02:42:53;;;;;;;1.70;1.60;;;1.30;99.90;;;;;;5010217;28;20415;-59
2021/12/11 02:45:31;;;;;;;1.50;1.40;;;1.30;99.90;;;;;;5011370;28;20465;-59
2021/12/11 02:48:03;;;;;;;2.37;1.80;;;1.30;99.90;;;;;;5010104;28;20605;-59
2021/12/11 02:50:35;;;;;;;1.40;1.30;;;1.30;99.90;;;;;;5014779;28;20441;-57
2021/12/11 02:53:03;;;;;;;1.60;1.50;;;1.30;99.90;;;;;;5014241;28;20820;-58
2021/12/11 02:55:33;;;;;;;1.47;1.23;;;1.30;99.90;;;;;;5016593;28;20420;-57
2021/12/11 02:58:16;;;;;;;1.50;1.40;;;1.20;99.90;;;;;;5014558;28;20634;-59
2021/12/11 03:01:34;;;;;;;1.77;1.40;;;1.20;99.90;;;;;;5016380;28;20433;-59
2021/12/11 03:04:21;;;;;;;1.70;1.40;;;1.20;99.90;;;;;;5006738;28;20433;-58
2021/12/11 03:06:49;;;;;;;1.23;1.17;;;1.30;99.90;;;;;;5018543;28;20579;-60
2021/12/11 03:09:21;;;;;;;1.53;1.43;;;1.30;99.90;;;;;;5021439;28;20450;-59
2021/12/11 03:11:48;;;;;;;1.97;1.80;;;1.20;99.90;;;;;;5023391;28;20422;-60
2021/12/11 03:14:18;;;;;;;1.90;1.70;;;1.30;99.90;;;;;;5022775;28;20470;-58
2021/12/11 03:16:45;;;;;;;1.73;1.63;;;1.30;99.90;;;;;;5025843;28;20447;-58
2021/12/11 03:19:15;;;;;;;1.20;1.20;;;1.30;99.90;;;;;;5011439;28;20891;-57
2021/12/11 03:21:42;;;;;;;1.40;1.30;;;1.30;99.90;;;;;;5009048;28;20425;-59
2021/12/11 03:24:09;;;;;;;1.33;1.27;;;1.30;99.90;;;;;;5008036;28;20430;-58
2021/12/11 03:26:36;;;;;;;1.60;1.50;;;1.30;99.90;;;;;;5008116;28;20493;-58
2021/12/11 03:29:02;;;;;;;2.00;1.37;;;1.30;99.90;;;;;;5007575;28;20452;-56
2021/12/11 03:31:28;;;;;;;1.57;1.47;;;1.30;99.90;;;;;;5007446;28;20429;-58
2021/12/11 03:33:57;;;;;;;1.30;1.30;;;1.30;99.90;;;;;;5007461;28;21039;-59
2021/12/11 03:36:25;;;;;;;1.37;1.30;;;1.30;99.90;;;;;;5011560;28;20364;-60
2021/12/11 03:38:57;;;;;;;1.30;1.20;;;1.30;99.90;;;;;;5017651;28;20484;-60
2021/12/11 03:41:24;;;;;;;1.33;1.20;;;1.30;99.90;;;;;;5019019;28;20966;-59
2021/12/11 03:43:51;;;;;;;1.33;1.23;;;1.30;99.90;;;;;;5020503;28;20622;-60
2021/12/11 03:46:19;;;;;;;1.60;1.50;;;1.30;99.90;;;;;;5019447;28;20422;-59
2021/12/11 03:48:57;;;;;;;1.57;1.47;;;1.30;99.90;;;;;;5020488;28;20889;-58
2021/12/11 03:51:28;;;;;;;1.70;1.60;;;1.30;99.90;;;;;;5016138;28;20455;-57
2021/12/11 03:53:55;;;;;;;1.50;1.40;;;1.30;99.90;;;;;;5016504;28;20870;-58
2021/12/11 03:56:21;;;;;;;2.07;1.83;;;1.30;99.90;;;;;;5017272;28;20437;-60
2021/12/11 03:58:51;;;;;;;1.60;1.50;;;1.30;99.90;;;;;;5020287;28;20466;-58
2021/12/11 04:01:30;;;;;;;1.30;1.30;;;1.30;99.90;;;;;;5021109;28;20469;-59
2021/12/11 04:04:01;;;;;;;2.07;1.80;;;1.30;99.90;;;;;;5019563;28;20456;-59
2021/12/11 04:06:26;;;;;;;2.73;1.57;;;1.30;99.90;;;;;;5014131;28;20456;-60
2021/12/11 04:08:54;;;;;;;4.93;1.60;;;1.30;99.90;;;;;;5018531;28;20446;-59
2021/12/11 04:11:27;;;;;;;1.60;1.50;;;1.30;99.90;;;;;;5016663;28;20214;-57
2021/12/11 04:13:56;;;;;;;1.93;1.77;;;1.30;99.90;;;;;;5016688;28;20450;-60
2021/12/11 04:16:23;;;;;;;1.37;1.27;;;1.30;99.90;;;;;;5018166;28;20517;-60
2021/12/11 04:18:49;;;;;;;1.67;1.40;;;1.30;99.90;;;;;;5015846;28;20468;-60
2021/12/11 04:21:15;;;;;;;1.70;1.60;;;1.30;99.90;;;;;;5014872;28;20459;-60
2021/12/11 04:23:42;;;;;;;1.33;1.23;;;1.30;99.90;;;;;;5017742;28;20448;-59
2021/12/11 04:26:08;;;;;;;1.70;1.60;;;1.30;99.90;;;;;;5016395;28;20246;-60
2021/12/11 04:28:37;;;;;;;1.57;1.47;;;1.30;99.90;;;;;;5017746;28;20430;-60
2021/12/11 04:31:07;;;;;;;1.73;1.57;;;1.30;99.90;;;;;;5017954;28;20459;-58
2021/12/11 04:33:39;;;;;;;1.90;1.63;;;1.30;99.90;;;;;;5017538;28;20782;-59
2021/12/11 04:36:12;;;;;;;1.77;1.63;;;1.30;99.90;;;;;;5014017;28;20430;-59
2021/12/11 04:38:39;;;;;;;1.83;1.73;;;1.30;99.90;;;;;;5004857;28;21006;-58
2021/12/11 04:41:06;;;;;;;1.90;1.80;;;1.30;99.90;;;;;;5005201;28;20536;-58
2021/12/11 04:43:33;;;;;;;2.33;1.77;;;1.30;99.90;;;;;;5006108;28;20559;-59
2021/12/11 04:46:07;;;;;;;3.30;2.10;;;1.30;99.90;;;;;;5005302;28;20528;-58
2021/12/11 04:56:36;;;;;;;4.23;1.97;;;1.30;99.90;;;;;;5001775;28;20720;-59
2021/12/11 05:07:21;;;;;;;2.20;2.00;;;1.30;99.90;;;;;;5028997;28;20464;-60
2021/12/11 05:10:06;;;;;;;1.77;1.67;;;1.30;99.90;;;;;;5026457;28;20469;-60
2021/12/11 05:12:36;;;;;;;1.80;1.70;;;1.30;99.90;;;;;;5026651;28;20518;-60
2021/12/11 05:15:06;;;;;;;1.70;1.60;;;1.30;99.90;;;;;;5027604;28;20493;-60
2021/12/11 05:17:32;;;;;;;1.60;1.50;;;1.30;99.90;;;;;;5016775;28;20435;-59
2021/12/11 05:19:57;;;;;;;2.03;1.83;;;1.30;99.90;;;;;;5003859;28;20474;-58
2021/12/11 05:22:23;;;;;;;4.87;1.70;;;1.30;99.90;;;;;;5004059;28;20290;-58
2021/12/11 05:24:54;;;;;;;1.60;1.50;;;1.40;99.90;;;;;;5002829;28;20471;-59
2021/12/11 05:27:21;;;;;;;1.97;1.87;;;1.40;99.90;;;;;;5011885;28;20445;-59
2021/12/11 05:29:48;;;;;;;1.90;1.80;;;1.40;99.90;;;;;;5003452;28;20579;-59
2021/12/11 05:32:18;;;;;;;1.90;1.80;;;1.40;99.90;;;;;;5003706;28;20464;-57
2021/12/11 05:34:44;;;;;;;2.20;1.53;;;1.40;99.90;;;;;;5000908;28;20425;-59
2021/12/11 05:37:10;;;;;;;1.70;1.50;;;1.40;99.90;;;;;;5004967;28;20456;-58
2021/12/11 05:39:36;;;;;;;1.80;1.70;;;1.40;99.90;;;;;;5004055;28;20219;-59
2021/12/11 05:42:03;;;;;;;2.20;1.70;;;1.40;99.90;;;;;;5005249;28;20946;-57
2021/12/11 05:44:29;;;;;;;2.40;1.57;;;1.30;99.90;;;;;;5003594;28;20181;-57
2021/12/11 05:46:55;;;;;;;1.73;1.53;;;1.40;99.90;;;;;;5004848;28;20429;-59
2021/12/11 05:49:22;;;;;;;1.73;1.63;;;1.30;99.90;;;;;;5004243;28;20193;-59
2021/12/11 05:51:49;;;;;;;1.63;1.53;;;1.30;99.90;;;;;;5002942;28;20941;-59
2021/12/11 05:54:27;;;;;;;2.50;1.80;;;1.30;99.90;;;;;;5005157;28;20435;-57
2021/12/11 05:57:01;;;;;;;2.87;1.80;;;1.30;99.90;;;;;;5001273;28;20441;-59
2021/12/11 05:59:27;;;;;;;1.80;1.70;;;1.30;99.90;;;;;;5006365;28;20470;-57
2021/12/11 06:02:07;;;;;;;1.70;1.60;;;1.30;99.90;;;;;;5001711;28;20436;-59
2021/12/11 06:04:35;;;;;;;1.97;1.57;;;1.30;99.90;;;;;;5002612;28;20437;-59
2021/12/11 06:07:03;;;;;;;1.57;1.47;;;1.30;99.90;;;;;;5002228;28;20478;-59
2021/12/11 06:12:16;;;;;;;1.47;1.37;;;1.30;99.90;;;;;;5020955;28;21009;-60
2021/12/11 06:14:43;;;;;;;2.13;1.57;;;1.30;99.90;;;;;;5023736;28;20433;-61
2021/12/11 06:17:11;;;;;;;1.60;1.50;;;1.30;99.90;;;;;;5022837;28;20436;-61
2021/12/11 06:19:38;;;;;;;1.50;1.40;;;1.30;99.90;;;;;;5023587;28;20561;-61
2021/12/11 06:22:04;;;;;;;1.80;1.47;;;1.30;99.90;;;;;;5003406;28;20528;-61
2021/12/11 06:24:30;;;;;;;2.07;1.97;;;1.30;99.90;;;;;;5004408;28;20438;-61
2021/12/11 06:26:58;;;;;;;2.00;1.90;;;1.30;99.90;;;;;;5001618;28;20539;-61
2021/12/11 06:29:24;;;;;;;2.13;2.00;;;1.30;99.90;;;;;;5003677;28;20974;-59
2021/12/11 06:31:50;;;;;;;1.97;1.87;;;1.30;99.90;;;;;;5003497;28;20832;-62
2021/12/11 06:34:16;;;;;;;2.30;1.90;;;1.30;99.90;;;;;;5005809;28;20421;-61
2021/12/11 06:36:43;;;;;;;1.80;1.70;;;1.30;99.90;;;;;;5004269;28;20448;-61
2021/12/11 06:39:14;;;;;;;2.00;1.90;;;1.30;99.90;;;;;;5004876;28;20461;-61
2021/12/11 06:41:42;;;;;;;2.23;2.03;;;1.30;99.90;;;;;;5002658;28;20457;-60
2021/12/11 06:44:09;;;;;;;3.30;2.10;;;1.30;99.90;;;;;;5005239;28;20502;-61
2021/12/11 06:46:36;;;;;;;2.10;1.93;;;1.30;99.90;;;;;;5005271;28;20924;-61
2021/12/11 06:49:03;;;;;;;2.67;2.47;;;1.30;99.90;;;;;;5005479;28;20449;-61
2021/12/11 06:51:29;;;;;;;3.17;2.40;;;1.30;99.90;;;;;;5003808;28;20755;-60
2021/12/11 06:54:00;;;;;;;2.30;2.10;;;1.30;99.90;;;;;;5003198;28;20937;-59
2021/12/11 06:56:28;;;;;;;5.67;2.60;;;1.30;99.90;;;;;;5000979;28;20171;-61
2021/12/11 06:58:54;;;;;;;5.77;3.63;;;1.30;99.90;;;;;;5002892;28;20469;-61
2021/12/11 07:01:23;;;;;;;3.30;2.97;;;1.30;99.90;;;;;;5004388;28;20458;-61
2021/12/11 07:03:49;;;;;;;3.60;3.30;;;1.30;99.90;;;;;;5009777;28;20484;-61
2021/12/11 07:06:15;;;;;;;3.43;2.30;;;1.40;99.90;;;;;;5004252;28;20465;-61
2021/12/11 07:08:42;;;;;;;7.03;2.50;;;1.40;99.90;;;;;;5006300;28;20463;-61
2021/12/11 07:11:11;;;;;;;2.27;2.03;;;1.40;99.90;;;;;;5005821;28;20489;-62
2021/12/11 07:13:38;;;;;;;3.20;2.50;;;1.40;99.90;;;;;;5000157;28;21226;-60
2021/12/11 07:16:04;;;;;;;5.60;4.43;;;1.40;99.90;;;;;;5007587;28;20971;-61
2021/12/11 07:18:32;;;;;;;3.40;2.70;;;1.40;99.90;;;;;;5007281;28;20450;-61
2021/12/11 07:20:58;;;;;;;2.47;2.17;;;1.40;99.90;;;;;;5004574;28;20199;-60
2021/12/11 07:23:24;;;;;;;2.40;2.00;;;1.50;99.90;;;;;;5003020;28;20426;-57
2021/12/11 07:25:55;;;;;;;2.30;2.13;;;1.40;99.90;;;;;;5004738;28;20931;-60
2021/12/11 07:28:21;;;;;;;3.30;2.80;;;1.40;99.90;;;;;;5005820;28;20434;-60
2021/12/11 07:30:49;;;;;;;2.60;2.40;;;1.40;99.90;;;;;;5004415;28;20535;-58
2021/12/11 07:33:17;;;;;;;2.23;2.10;;;1.50;99.90;;;;;;5007214;28;20179;-58
2021/12/11 07:35:45;;;;;;;2.30;2.20;;;1.50;99.90;;;;;;5010070;28;20438;-60
2021/12/11 07:38:10;;;;;;;3.10;1.83;;;1.50;99.90;;;;;;5009439;28;20437;-60
2021/12/11 07:40:44;;;;;;;2.40;2.20;;;1.50;99.90;;;;;;5005839;28;20531;-60
2021/12/11 07:43:12;;;;;;;2.10;1.90;;;1.50;99.90;;;;;;5008588;28;20229;-61
2021/12/11 07:45:39;;;;;;;5.80;3.93;;;1.50;99.90;;;;;;5007097;28;20433;-60
2021/12/11 07:48:06;;;;;;;4.30;2.70;;;1.50;99.90;;;;;;5006406;28;20432;-60
2021/12/11 07:50:32;;;;;;;2.90;2.27;;;1.50;99.90;;;;;;5006278;28;20490;-61
2021/12/11 07:52:58;;;;;;;2.77;2.47;;;1.50;99.90;;;;;;5020623;28;21004;-60
2021/12/11 07:55:24;;;;;;;2.47;2.00;;;1.50;99.90;;;;;;5006580;28;20433;-60
2021/12/11 07:57:50;;;;;;;2.70;2.13;;;1.50;99.90;;;;;;5006926;28;20229;-59
2021/12/11 08:00:24;;;;;;;2.87;2.67;;;1.60;99.90;;;;;;5004114;28;20213;-61
2021/12/11 08:02:51;;;;;;;3.83;3.03;;;1.50;99.90;;;;;;5004933;28;20430;-61
2021/12/11 08:05:17;;;;;;;4.50;3.20;;;1.60;99.90;;;;;;5007096;28;20936;-62
2021/12/11 08:07:43;;;;;;;7.47;3.23;;;1.60;99.90;;;;;;5006191;28;20799;-61
2021/12/11 08:10:16;;;;;;;5.03;3.10;;;1.60;99.90;;;;;;5004725;28;20485;-60
2021/12/11 08:12:42;;;;;;;4.97;3.67;;;1.60;99.90;;;;;;5005077;28;20938;-60
2021/12/11 08:15:10;;;;;;;5.07;3.60;;;1.70;99.90;;;;;;5007191;28;20412;-61
2021/12/11 08:17:36;;;;;;;4.40;4.00;;;1.70;99.90;;;;;;5005724;28;20482;-61
2021/12/11 08:20:05;;;;;;;6.10;4.53;;;1.70;99.90;;;;;;5003720;28;20911;-60
2021/12/11 08:22:30;;;;;;;3.60;3.30;;;1.70;99.90;;;;;;5003123;28;20187;-60
2021/12/11 08:24:56;;;;;;;2.80;2.60;;;1.70;99.90;;;;;;5002571;28;20493;-61
2021/12/11 08:27:22;;;;;;;4.90;3.00;;;1.70;99.90;;;;;;5003218;28;20840;-61
2021/12/11 08:29:52;;;;;;;3.20;2.90;;;1.70;99.90;;;;;;5001375;28;20727;-61
2021/12/11 08:32:19;;;;;;;3.17;2.97;;;1.80;99.90;;;;;;5005298;28;20446;-61
2021/12/11 08:34:45;;;;;;;3.23;2.93;;;1.80;99.90;;;;;;5001175;28;20439;-60
2021/12/11 08:37:15;;;;;;;7.63;2.73;;;1.80;99.90;;;;;;5015960;28;20441;-61
2021/12/11 08:39:43;;;;;;;4.00;2.60;;;1.80;99.90;;;;;;5004529;28;20451;-61
2021/12/11 08:42:11;;;;;;;2.60;2.43;;;1.80;99.90;;;;;;5003041;28;20695;-61
2021/12/11 08:44:39;;;;;;;2.00;1.90;;;1.90;99.90;;;;;;5005775;28;20653;-61
2021/12/11 08:47:11;;;;;;;2.00;1.90;;;1.90;99.90;;;;;;5005816;28;20431;-61
2021/12/11 08:49:39;;;;;;;1.90;1.80;;;1.90;99.90;;;;;;5003028;28;20444;-62
2021/12/11 08:52:19;;;;;;;1.80;1.70;;;1.90;99.90;;;;;;5003971;28;20828;-59
2021/12/11 08:54:47;;;;;;;3.57;1.97;;;2.00;99.90;;;;;;5005468;28;20459;-61
2021/12/11 08:57:16;;;;;;;1.40;1.30;;;2.00;99.90;;;;;;5003692;28;20436;-61
2021/12/11 08:59:45;;;;;;;2.30;1.77;;;2.00;99.90;;;;;;5005458;28;20463;-61
2021/12/11 09:02:23;;;;;;;1.90;1.73;;;1.90;99.90;;;;;;5006614;28;20999;-60
2021/12/11 09:04:59;;;;;;;1.60;1.50;;;1.90;99.90;;;;;;5005723;28;20465;-60
2021/12/11 09:07:32;;;;;;;1.90;1.80;;;1.90;99.90;;;;;;5005047;28;20579;-61
2021/12/11 09:10:17;;;;;;;1.60;1.50;;;1.90;99.90;;;;;;5004220;28;20496;-61
2021/12/11 09:12:58;;;;;;;1.90;1.80;;;1.90;99.90;;;;;;5003270;28;20434;-61
2021/12/11 09:15:29;;;;;;;2.10;2.00;;;1.90;99.90;;;;;;5004922;28;20428;-59
2021/12/11 09:18:21;;;;;;;3.27;1.87;;;1.90;99.90;;;;;;5003122;28;20437;-61
2021/12/11 09:20:54;;;;;;;1.80;1.70;;;1.90;99.90;;;;;;5004666;28;20450;-61
2021/12/11 09:23:38;;;;;;;2.53;1.73;;;1.90;99.90;;;;;;5005445;28;20428;-61
2021/12/11 09:26:30;;;;;;;2.40;2.20;;;1.90;99.90;;;;;;5005458;28;20433;-61
2021/12/11 09:29:12;;;;;;;3.00;2.00;;;1.90;99.90;;;;;;5005242;28;20843;-61
2021/12/11 09:31:58;;;;;;;2.00;1.80;;;1.90;99.90;;;;;;5003897;28;20461;-61
2021/12/11 09:34:32;;;;;;;3.13;2.40;;;2.00;99.90;;;;;;5020916;28;20419;-61
2021/12/11 09:37:00;;;;;;;2.30;2.10;;;2.00;99.90;;;;;;5006020;28;20444;-61
2021/12/11 09:39:29;;;;;;;2.27;2.10;;;2.00;99.90;;;;;;5005150;28;20889;-61
2021/12/11 09:41:54;;;;;;;1.97;1.87;;;2.00;99.90;;;;;;5005463;28;20814;-59
2021/12/11 09:44:29;;;;;;;1.90;1.80;;;1.90;99.90;;;;;;5006083;28;20414;-61
2021/12/11 09:47:05;;;;;;;2.10;2.00;;;1.90;99.90;;;;;;5005755;28;20170;-60
2021/12/11 09:49:37;;;;;;;2.20;2.03;;;2.00;99.90;;;;;;5005460;28;20492;-60
2021/12/11 09:52:16;;;;;;;3.03;1.80;;;2.00;99.90;;;;;;5000901;28;20447;-60
2021/12/11 09:54:45;;;;;;;1.63;1.53;;;2.00;99.90;;;;;;5000726;28;20433;-60
2021/12/11 09:57:14;;;;;;;1.90;1.80;;;2.00;99.90;;;;;;5005379;28;20467;-61
2021/12/11 09:59:40;;;;;;;2.13;2.03;;;2.10;99.90;;;;;;5004394;28;20898;-59
2021/12/11 10:02:16;;;;;;;2.70;1.80;;;2.10;99.90;;;;;;5004901;28;20493;-61
2021/12/11 10:04:52;;;;;;;2.33;2.13;;;2.10;99.90;;;;;;5007329;28;20431;-56
2021/12/11 10:07:33;;;;;;;1.90;1.80;;;2.10;99.90;;;;;;5018641;28;20450;-60
2021/12/11 10:10:21;;;;;;;2.17;2.03;;;2.20;99.90;;;;;;5001180;28;20975;-60
2021/12/11 10:12:52;;;;;;;3.30;2.60;;;2.20;99.90;;;;;;5002438;28;21055;-62
2021/12/11 10:15:21;;;;;;;4.10;3.33;;;2.20;99.90;;;;;;4999511;28;20449;-60
2021/12/11 10:18:04;;;;;;;6.90;3.83;;;2.20;99.90;;;;;;5002584;28;20432;-61
2021/12/11 10:20:38;;;;;;;4.80;3.17;;;2.30;99.90;;;;;;5006068;28;20468;-62
2021/12/11 10:23:07;;;;;;;4.43;2.90;;;2.30;99.90;;;;;;5003396;28;20437;-60
2021/12/11 10:25:36;;;;;;;3.20;2.87;;;2.40;99.90;;;;;;5003557;28;20438;-60
2021/12/11 10:28:06;;;;;;;3.70;2.73;;;2.40;99.90;;;;;;5005312;28;20426;-61
2021/12/11 10:30:35;;;;;;;3.33;3.03;;;2.40;99.90;;;;;;5002482;28;21041;-62
2021/12/11 10:33:02;;;;;;;3.70;3.30;;;2.40;99.90;;;;;;5004386;28;20441;-59
2021/12/11 10:35:33;;;;;;;4.17;2.90;;;2.40;99.90;;;;;;5006924;28;20498;-61
2021/12/11 10:38:02;;;;;;;2.70;2.50;;;2.50;99.90;;;;;;5024148;28;20435;-60
2021/12/11 10:40:36;;;;;;;2.60;2.40;;;2.50;99.90;;;;;;5004751;28;20474;-59
2021/12/11 10:43:14;;;;;;;2.60;2.40;;;2.60;99.90;;;;;;5010467;28;20414;-62
2021/12/11 10:45:41;;;;;;;5.50;3.00;;;2.50;99.90;;;;;;5003382;28;20507;-59
2021/12/11 10:48:10;;;;;;;2.73;2.53;;;2.50;99.90;;;;;;5001774;28;21126;-61
2021/12/11 10:50:44;;;;;;;2.20;2.10;;;2.50;99.90;;;;;;5022742;28;20451;-60
2021/12/11 10:53:15;;;;;;;1.90;1.80;;;2.40;99.90;;;;;;5006190;28;20462;-62
2021/12/11 10:55:42;;;;;;;2.13;2.03;;;2.30;99.90;;;;;;5004455;28;21214;-61
2021/12/11 10:58:15;;;;;;;2.13;2.00;;;2.30;99.90;;;;;;5000996;28;20477;-60
2021/12/11 11:00:55;;;;;;;2.00;1.90;;;2.20;99.90;;;;;;5024774;28;20442;-61
2021/12/11 11:03:22;;;;;;;2.70;2.47;;;2.20;99.90;;;;;;5001385;28;20561;-62
2021/12/11 11:05:49;;;;;;;2.23;2.03;;;2.20;99.90;;;;;;5004508;28;20434;-60
2021/12/11 11:08:15;;;;;;;2.50;2.20;;;2.20;99.90;;;;;;5005725;28;20415;-61
2021/12/11 11:10:55;;;;;;;3.57;2.87;;;2.20;99.90;;;;;;5006102;28;20473;-60
2021/12/11 11:13:22;;;;;;;2.20;2.00;;;2.20;99.90;;;;;;5004162;28;20437;-59
2021/12/11 11:15:49;;;;;;;3.10;2.80;;;2.20;99.90;;;;;;5006065;28;20412;-60
2021/12/11 11:18:17;;;;;;;3.47;3.17;;;2.30;99.90;;;;;;5003159;28;20447;-57
2021/12/11 11:20:58;;;;;;;3.83;3.30;;;2.40;99.90;;;;;;4996726;28;20484;-59
2021/12/11 11:23:24;;;;;;;2.80;2.60;;;2.50;99.90;;;;;;5004407;28;20419;-60
2021/12/11 11:25:53;;;;;;;2.53;2.33;;;2.70;99.90;;;;;;5010734;28;20940;-60
2021/12/11 11:28:23;;;;;;;2.63;2.40;;;2.80;99.90;;;;;;5011438;28;20450;-60
2021/12/11 11:31:00;;;;;;;4.77;3.10;;;2.80;99.90;;;;;;5006454;28;20525;-60
2021/12/11 11:33:30;;;;;;;2.97;2.60;;;2.80;99.90;;;;;;5011009;28;20415;-59
2021/12/11 11:35:59;;;;;;;3.57;3.27;;;2.80;99.90;;;;;;5008921;28;20658;-59
2021/12/11 11:38:32;;;;;;;3.97;3.57;;;2.80;99.90;;;;;;5009646;28;20428;-60
2021/12/11 11:41:04;;;;;;;3.30;2.97;;;2.90;99.90;;;;;;4991804;28;20416;-59
2021/12/11 11:43:30;;;;;;;2.63;2.43;;;2.90;99.90;;;;;;4997719;28;20433;-60
2021/12/11 11:45:57;;;;;;;4.43;2.93;;;2.80;99.90;;;;;;5009628;28;20840;-58
2021/12/11 11:48:25;;;;;;;5.83;2.93;;;2.80;99.90;;;;;;5009740;28;20169;-60
2021/12/11 11:50:53;;;;;;;4.23;3.50;;;2.80;99.90;;;;;;5011012;28;20454;-60
2021/12/11 11:53:24;;;;;;;4.03;3.70;;;2.70;99.90;;;;;;5010034;28;20434;-59
2021/12/11 11:55:57;;;;;;;5.07;4.10;;;2.70;99.90;;;;;;5009589;28;20438;-60
2021/12/11 11:58:29;;;;;;;4.13;3.40;;;2.70;99.90;;;;;;5012303;28;20550;-59
2021/12/11 12:01:12;;;;;;;4.37;3.97;;;2.70;99.90;;;;;;5005645;28;21061;-60
2021/12/11 12:03:38;;;;;;;3.90;3.37;;;2.70;99.90;;;;;;5004905;28;20426;-60
2021/12/11 12:06:11;;;;;;;4.70;3.10;;;2.80;99.90;;;;;;5008897;28;20822;-60
2021/12/11 12:08:38;;;;;;;4.03;3.63;;;2.80;99.90;;;;;;5009418;28;20427;-59
2021/12/11 12:11:05;;;;;;;3.60;3.23;;;2.80;99.90;;;;;;5037734;23;20699;-57
2021/12/11 12:13:32;;;;;;;4.10;3.70;;;2.70;99.90;;;;;;5014041;28;20422;-57
2021/12/11 12:16:06;;;;;;;4.43;3.60;;;2.70;99.90;;;;;;5011060;28;20715;-57
2021/12/11 12:18:32;;;;;;;3.53;3.23;;;2.60;99.90;;;;;;5010746;28;20727;-58
2021/12/11 12:21:00;;;;;;;3.33;3.07;;;2.50;99.90;;;;;;5008670;28;20608;-59
2021/12/11 12:23:31;;;;;;;5.60;4.10;;;2.50;99.90;;;;;;4991082;28;20453;-58
2021/12/11 12:26:03;;;;;;;8.23;4.00;;;2.40;99.90;;;;;;4991774;28;20850;-58
2021/12/11 12:28:30;;;;;;;5.33;4.10;;;2.40;99.90;;;;;;4993418;28;20432;-56
2021/12/11 12:31:02;;;;;;;3.90;3.60;;;2.30;99.90;;;;;;4993021;28;20451;-58
2021/12/11 12:33:29;;;;;;;4.43;4.00;;;2.30;99.90;;;;;;4982792;28;20424;-57
2021/12/11 12:35:55;;;;;;;4.90;4.40;;;2.30;99.90;;;;;;4990164;28;20412;-57
2021/12/11 12:38:24;;;;;;;3.77;3.47;;;2.20;99.90;;;;;;4988524;28;20437;-56
2021/12/11 12:40:59;;;;;;;4.43;3.83;;;2.20;99.90;;;;;;4991144;28;20874;-56
2021/12/11 12:43:55;;;;;;;6.37;4.10;;;2.20;99.90;;;;;;4990767;28;20408;-58
2021/12/11 12:46:26;;;;;;;5.30;3.67;;;2.20;99.90;;;;;;5007976;28;20543;-58
2021/12/11 12:48:52;;;;;;;3.57;3.17;;;2.30;99.90;;;;;;5007097;28;20466;-57
2021/12/11 12:51:19;;;;;;;3.17;2.90;;;2.40;99.90;;;;;;4992480;28;21005;-56
2021/12/11 12:53:46;;;;;;;3.37;3.07;;;2.40;99.90;;;;;;4992993;28;20175;-58
2021/12/11 12:56:16;;;;;;;4.43;3.73;;;2.40;99.90;;;;;;4989801;28;20439;-58
2021/12/11 12:58:54;;;;;;;12.13;3.23;;;2.40;99.90;;;;;;4991359;28;20957;-57
2021/12/11 13:01:27;;;;;;;4.50;4.00;;;2.30;99.90;;;;;;4990969;28;20439;-59
2021/12/11 13:03:54;;;;;;;4.80;4.03;;;2.30;99.90;;;;;;4991716;28;20482;-57
2021/12/11 13:06:28;;;;;;;7.13;4.47;;;2.30;99.90;;;;;;4984980;28;20424;-57
2021/12/11 13:08:56;;;;;;;16.37;4.53;;;2.30;99.90;;;;;;4992009;28;20400;-57
2021/12/11 13:11:34;;;;;;;5.40;3.93;;;2.30;99.90;;;;;;4988292;28;20857;-57
2021/12/11 13:14:00;;;;;;;4.00;3.60;;;2.40;99.90;;;;;;4990030;28;20523;-62
2021/12/11 13:16:33;;;;;;;3.70;3.40;;;2.40;99.90;;;;;;4989958;28;20446;-59
2021/12/11 13:19:22;;;;;;;4.33;3.93;;;2.40;99.90;;;;;;4990431;28;20478;-56
2021/12/11 13:21:54;;;;;;;5.20;4.07;;;2.40;99.90;;;;;;4979244;28;20576;-57
2021/12/11 13:24:24;;;;;;;4.53;4.13;;;2.40;99.90;;;;;;4974744;28;20563;-64
2021/12/11 13:26:57;;;;;;;4.03;3.63;;;2.40;99.90;;;;;;4985914;28;20461;-56
2021/12/11 13:29:30;;;;;;;5.53;4.10;;;2.40;99.90;;;;;;4984551;28;20498;-56
2021/12/11 13:32:07;;;;;;;5.63;4.20;;;2.40;99.90;;;;;;4983680;28;20990;-57
2021/12/11 13:34:37;;;;;;;4.57;4.13;;;2.40;99.90;;;;;;4984240;28;20455;-58
2021/12/11 13:37:07;;;;;;;4.00;3.60;;;2.40;99.90;;;;;;4984529;28;20519;-55